Terminal Aerodrome Forecast
Issued by NWS Knoxville/Tri Cities, TN

Home | Current Version | Previous Version | Text Only | Print | Product List | Glossary On
Versions: 1 2 3 4 5 6 7 8 9 10 11 12 13 14 15 16 17 18 19 20 21 22 23 24 25 26
000
FTUS44 KMRX 311120
TAFCHA
TAF
KCHA 311120Z 3112/0112 VRB04KT P6SM SCT050 BKN150 OVC200
     FM010000 03003KT P6SM VCSH SCT040 BKN150
     FM010600 05002KT P6SM SCT050 OVC100=

USA.gov is the U.S. government's official web portal to all federal, state and local government web resources and services.